sensor_id;sensor_type;location;lat;lon;timestamp;P1;durP1;ratioP1;P2;durP2;ratioP2
1428;SDS011;708;51.442;7.016;2022-12-01T00:00:06;29.92;;;16.73;;
1428;SDS011;708;51.442;7.016;2022-12-01T00:02:34;32.88;;;19.15;;
1428;SDS011;708;51.442;7.016;2022-12-01T00:05:00;33.00;;;20.60;;
1428;SDS011;708;51.442;7.016;2022-12-01T00:07:29;37.28;;;18.95;;
1428;SDS011;708;51.442;7.016;2022-12-01T00:09:55;31.38;;;18.80;;
1428;SDS011;708;51.442;7.016;2022-12-01T00:12:40;38.30;;;20.05;;
1428;SDS011;708;51.442;7.016;2022-12-01T00:15:08;34.38;;;21.55;;
1428;SDS011;708;51.442;7.016;2022-12-01T00:17:35;34.50;;;18.35;;
1428;SDS011;708;51.442;7.016;2022-12-01T00:20:02;38.17;;;23.05;;
1428;SDS011;708;51.442;7.016;2022-12-01T00:22:31;32.15;;;19.80;;
1428;SDS011;708;51.442;7.016;2022-12-01T00:24:58;37.00;;;21.23;;
1428;SDS011;708;51.442;7.016;2022-12-01T00:27:24;37.70;;;20.63;;
1428;SDS011;708;51.442;7.016;2022-12-01T00:29:51;43.08;;;22.77;;
1428;SDS011;708;51.442;7.016;2022-12-01T00:32:18;43.28;;;22.85;;
1428;SDS011;708;51.442;7.016;2022-12-01T00:34:45;40.35;;;20.65;;
1428;SDS011;708;51.442;7.016;2022-12-01T00:37:11;40.38;;;23.40;;
1428;SDS011;708;51.442;7.016;2022-12-01T00:39:39;42.83;;;23.60;;
1428;SDS011;708;51.442;7.016;2022-12-01T00:42:06;43.35;;;21.40;;
1428;SDS011;708;51.442;7.016;2022-12-01T00:44:33;40.78;;;23.05;;
1428;SDS011;708;51.442;7.016;2022-12-01T00:47:00;53.80;;;26.10;;
1428;SDS011;708;51.442;7.016;2022-12-01T00:49:26;43.30;;;23.27;;
1428;SDS011;708;51.442;7.016;2022-12-01T00:51:53;42.88;;;21.77;;
1428;SDS011;708;51.442;7.016;2022-12-01T00:54:20;42.65;;;22.25;;
1428;SDS011;708;51.442;7.016;2022-12-01T00:56:48;47.33;;;23.60;;
1428;SDS011;708;51.442;7.016;2022-12-01T00:59:15;45.70;;;22.05;;
1428;SDS011;708;51.442;7.016;2022-12-01T01:01:41;45.97;;;23.73;;
1428;SDS011;708;51.442;7.016;2022-12-01T01:04:08;52.00;;;25.35;;
1428;SDS011;708;51.442;7.016;2022-12-01T01:06:35;47.92;;;24.65;;
1428;SDS011;708;51.442;7.016;2022-12-01T01:09:02;43.20;;;22.52;;
1428;SDS011;708;51.442;7.016;2022-12-01T01:11:29;53.70;;;23.80;;
1428;SDS011;708;51.442;7.016;2022-12-01T01:13:58;56.92;;;24.35;;
1428;SDS011;708;51.442;7.016;2022-12-01T01:16:25;49.22;;;24.65;;
1428;SDS011;708;51.442;7.016;2022-12-01T01:18:53;50.28;;;24.92;;
1428;SDS011;708;51.442;7.016;2022-12-01T01:21:21;49.97;;;25.40;;
1428;SDS011;708;51.442;7.016;2022-12-01T01:23:49;49.42;;;25.45;;
1428;SDS011;708;51.442;7.016;2022-12-01T01:26:19;52.35;;;23.70;;
1428;SDS011;708;51.442;7.016;2022-12-01T01:28:47;51.55;;;26.00;;
1428;SDS011;708;51.442;7.016;2022-12-01T01:31:16;52.22;;;25.58;;
1428;SDS011;708;51.442;7.016;2022-12-01T01:33:44;53.40;;;25.35;;
1428;SDS011;708;51.442;7.016;2022-12-01T01:36:12;57.05;;;26.92;;
1428;SDS011;708;51.442;7.016;2022-12-01T01:38:39;50.88;;;25.70;;
1428;SDS011;708;51.442;7.016;2022-12-01T01:41:06;66.15;;;27.85;;
1428;SDS011;708;51.442;7.016;2022-12-01T01:43:38;59.03;;;26.73;;
1428;SDS011;708;51.442;7.016;2022-12-01T01:46:08;62.90;;;27.55;;
1428;SDS011;708;51.442;7.016;2022-12-01T01:48:37;57.35;;;27.33;;
1428;SDS011;708;51.442;7.016;2022-12-01T01:51:07;57.15;;;26.63;;
1428;SDS011;708;51.442;7.016;2022-12-01T01:53:36;57.47;;;26.48;;
1428;SDS011;708;51.442;7.016;2022-12-01T01:56:03;48.95;;;25.45;;
1428;SDS011;708;51.442;7.016;2022-12-01T01:58:32;58.17;;;25.67;;
1428;SDS011;708;51.442;7.016;2022-12-01T02:00:59;54.10;;;25.65;;
1428;SDS011;708;51.442;7.016;2022-12-01T02:03:26;50.28;;;26.05;;
1428;SDS011;708;51.442;7.016;2022-12-01T02:05:55;50.60;;;25.35;;
1428;SDS011;708;51.442;7.016;2022-12-01T02:08:22;54.65;;;21.75;;
1428;SDS011;708;51.442;7.016;2022-12-01T02:11:00;58.28;;;24.95;;
1428;SDS011;708;51.442;7.016;2022-12-01T02:13:42;50.85;;;26.67;;
1428;SDS011;708;51.442;7.016;2022-12-01T02:16:16;54.50;;;27.17;;
1428;SDS011;708;51.442;7.016;2022-12-01T02:18:50;48.85;;;22.92;;
1428;SDS011;708;51.442;7.016;2022-12-01T02:21:26;49.80;;;24.35;;
1428;SDS011;708;51.442;7.016;2022-12-01T02:27:05;52.58;;;25.42;;
1428;SDS011;708;51.442;7.016;2022-12-01T02:29:40;51.33;;;24.63;;
1428;SDS011;708;51.442;7.016;2022-12-01T02:32:29;52.45;;;25.27;;
1428;SDS011;708;51.442;7.016;2022-12-01T02:35:06;55.92;;;27.83;;
1428;SDS011;708;51.442;7.016;2022-12-01T02:37:40;54.65;;;25.50;;
1428;SDS011;708;51.442;7.016;2022-12-01T02:40:13;54.20;;;26.42;;
1428;SDS011;708;51.442;7.016;2022-12-01T02:42:45;61.50;;;24.83;;
1428;SDS011;708;51.442;7.016;2022-12-01T02:45:18;49.65;;;23.58;;
1428;SDS011;708;51.442;7.016;2022-12-01T02:47:58;57.50;;;25.50;;
1428;SDS011;708;51.442;7.016;2022-12-01T02:50:26;55.83;;;25.08;;
1428;SDS011;708;51.442;7.016;2022-12-01T02:52:56;51.60;;;23.67;;
1428;SDS011;708;51.442;7.016;2022-12-01T02:55:24;38.75;;;21.13;;
1428;SDS011;708;51.442;7.016;2022-12-01T02:57:51;40.90;;;22.05;;
1428;SDS011;708;51.442;7.016;2022-12-01T03:00:18;37.15;;;22.10;;
1428;SDS011;708;51.442;7.016;2022-12-01T03:02:48;33.17;;;20.13;;
1428;SDS011;708;51.442;7.016;2022-12-01T03:05:37;39.88;;;21.30;;
1428;SDS011;708;51.442;7.016;2022-12-01T03:08:11;34.95;;;19.27;;
1428;SDS011;708;51.442;7.016;2022-12-01T03:10:47;37.35;;;19.73;;
1428;SDS011;708;51.442;7.016;2022-12-01T03:13:19;29.60;;;16.52;;
1428;SDS011;708;51.442;7.016;2022-12-01T03:15:56;35.03;;;17.70;;
1428;SDS011;708;51.442;7.016;2022-12-01T03:18:30;31.38;;;17.00;;
1428;SDS011;708;51.442;7.016;2022-12-01T03:21:03;34.58;;;19.70;;
1428;SDS011;708;51.442;7.016;2022-12-01T03:23:35;35.63;;;17.52;;
1428;SDS011;708;51.442;7.016;2022-12-01T03:26:06;33.45;;;17.23;;
1428;SDS011;708;51.442;7.016;2022-12-01T03:28:37;30.70;;;18.92;;
1428;SDS011;708;51.442;7.016;2022-12-01T03:31:08;34.28;;;18.67;;
1428;SDS011;708;51.442;7.016;2022-12-01T03:33:44;30.30;;;17.83;;
1428;SDS011;708;51.442;7.016;2022-12-01T03:36:15;29.67;;;17.38;;
1428;SDS011;708;51.442;7.016;2022-12-01T03:38:47;39.42;;;19.30;;
1428;SDS011;708;51.442;7.016;2022-12-01T03:41:18;36.42;;;20.52;;
1428;SDS011;708;51.442;7.016;2022-12-01T03:43:52;35.00;;;19.30;;
1428;SDS011;708;51.442;7.016;2022-12-01T03:46:24;30.80;;;17.27;;
1428;SDS011;708;51.442;7.016;2022-12-01T03:48:59;35.10;;;19.63;;
1428;SDS011;708;51.442;7.016;2022-12-01T03:51:29;37.00;;;18.88;;
1428;SDS011;708;51.442;7.016;2022-12-01T03:54:04;36.33;;;19.10;;
1428;SDS011;708;51.442;7.016;2022-12-01T03:56:37;33.72;;;18.95;;
1428;SDS011;708;51.442;7.016;2022-12-01T03:59:09;36.40;;;18.80;;
1428;SDS011;708;51.442;7.016;2022-12-01T04:01:38;34.22;;;19.45;;
1428;SDS011;708;51.442;7.016;2022-12-01T04:04:07;40.53;;;18.90;;
1428;SDS011;708;51.442;7.016;2022-12-01T04:06:35;36.00;;;18.10;;
1428;SDS011;708;51.442;7.016;2022-12-01T04:09:02;26.58;;;17.70;;
1428;SDS011;708;51.442;7.016;2022-12-01T04:11:29;37.20;;;20.80;;
1428;SDS011;708;51.442;7.016;2022-12-01T04:14:13;25.88;;;16.15;;
1428;SDS011;708;51.442;7.016;2022-12-01T04:16:40;30.60;;;17.25;;
1428;SDS011;708;51.442;7.016;2022-12-01T04:19:09;34.75;;;20.23;;
1428;SDS011;708;51.442;7.016;2022-12-01T04:21:36;36.08;;;18.98;;
1428;SDS011;708;51.442;7.016;2022-12-01T04:24:03;34.30;;;18.58;;
1428;SDS011;708;51.442;7.016;2022-12-01T04:26:31;35.55;;;19.88;;
1428;SDS011;708;51.442;7.016;2022-12-01T04:28:58;33.17;;;18.45;;
1428;SDS011;708;51.442;7.016;2022-12-01T04:31:25;38.45;;;18.02;;
1428;SDS011;708;51.442;7.016;2022-12-01T04:33:52;36.45;;;18.98;;
1428;SDS011;708;51.442;7.016;2022-12-01T04:36:28;32.53;;;18.00;;
1428;SDS011;708;51.442;7.016;2022-12-01T04:39:13;32.95;;;17.33;;
1428;SDS011;708;51.442;7.016;2022-12-01T04:41:40;46.90;;;21.42;;
1428;SDS011;708;51.442;7.016;2022-12-01T04:44:08;44.25;;;20.50;;
1428;SDS011;708;51.442;7.016;2022-12-01T04:46:35;38.60;;;20.33;;
1428;SDS011;708;51.442;7.016;2022-12-01T04:49:02;40.53;;;19.95;;
1428;SDS011;708;51.442;7.016;2022-12-01T04:51:30;36.30;;;20.33;;
1428;SDS011;708;51.442;7.016;2022-12-01T04:53:57;36.58;;;19.95;;
1428;SDS011;708;51.442;7.016;2022-12-01T04:56:24;34.95;;;19.92;;
1428;SDS011;708;51.442;7.016;2022-12-01T04:58:50;44.45;;;20.02;;
1428;SDS011;708;51.442;7.016;2022-12-01T05:01:17;38.35;;;19.88;;
1428;SDS011;708;51.442;7.016;2022-12-01T05:03:46;35.95;;;19.17;;
1428;SDS011;708;51.442;7.016;2022-12-01T05:06:14;29.88;;;18.70;;
1428;SDS011;708;51.442;7.016;2022-12-01T05:08:44;37.85;;;20.42;;
1428;SDS011;708;51.442;7.016;2022-12-01T05:11:11;44.10;;;21.38;;
1428;SDS011;708;51.442;7.016;2022-12-01T05:13:39;34.72;;;20.42;;
1428;SDS011;708;51.442;7.016;2022-12-01T05:16:08;38.63;;;19.48;;
1428;SDS011;708;51.442;7.016;2022-12-01T05:18:36;35.25;;;19.23;;
1428;SDS011;708;51.442;7.016;2022-12-01T05:21:04;31.50;;;19.60;;
1428;SDS011;708;51.442;7.016;2022-12-01T05:23:32;41.95;;;21.83;;
1428;SDS011;708;51.442;7.016;2022-12-01T05:26:02;37.92;;;20.88;;
1428;SDS011;708;51.442;7.016;2022-12-01T05:28:30;44.95;;;20.55;;
1428;SDS011;708;51.442;7.016;2022-12-01T05:30:57;35.30;;;17.77;;
1428;SDS011;708;51.442;7.016;2022-12-01T05:33:24;33.53;;;22.00;;
1428;SDS011;708;51.442;7.016;2022-12-01T05:35:52;31.95;;;20.40;;
1428;SDS011;708;51.442;7.016;2022-12-01T05:38:19;35.55;;;20.60;;
1428;SDS011;708;51.442;7.016;2022-12-01T05:40:48;33.25;;;20.35;;
1428;SDS011;708;51.442;7.016;2022-12-01T05:43:17;31.88;;;19.65;;
1428;SDS011;708;51.442;7.016;2022-12-01T05:45:44;35.40;;;20.30;;
1428;SDS011;708;51.442;7.016;2022-12-01T05:48:11;36.22;;;19.63;;
1428;SDS011;708;51.442;7.016;2022-12-01T05:50:38;35.13;;;19.92;;
1428;SDS011;708;51.442;7.016;2022-12-01T05:53:05;38.28;;;20.70;;
1428;SDS011;708;51.442;7.016;2022-12-01T05:55:32;35.58;;;20.45;;
1428;SDS011;708;51.442;7.016;2022-12-01T05:57:59;37.60;;;21.35;;
1428;SDS011;708;51.442;7.016;2022-12-01T06:00:28;32.00;;;21.85;;
1428;SDS011;708;51.442;7.016;2022-12-01T06:02:57;38.10;;;22.52;;
1428;SDS011;708;51.442;7.016;2022-12-01T06:05:26;35.20;;;19.13;;
1428;SDS011;708;51.442;7.016;2022-12-01T06:07:53;36.40;;;20.75;;
1428;SDS011;708;51.442;7.016;2022-12-01T06:10:20;37.30;;;21.33;;
1428;SDS011;708;51.442;7.016;2022-12-01T06:12:47;35.35;;;20.95;;
1428;SDS011;708;51.442;7.016;2022-12-01T06:15:14;33.03;;;19.98;;
1428;SDS011;708;51.442;7.016;2022-12-01T06:17:43;32.80;;;20.05;;
1428;SDS011;708;51.442;7.016;2022-12-01T06:20:10;32.00;;;20.63;;
1428;SDS011;708;51.442;7.016;2022-12-01T06:22:38;34.97;;;21.05;;
1428;SDS011;708;51.442;7.016;2022-12-01T06:25:05;38.92;;;23.33;;
1428;SDS011;708;51.442;7.016;2022-12-01T06:27:32;39.90;;;21.60;;
1428;SDS011;708;51.442;7.016;2022-12-01T06:29:59;43.42;;;21.23;;
1428;SDS011;708;51.442;7.016;2022-12-01T06:32:26;37.22;;;21.48;;
1428;SDS011;708;51.442;7.016;2022-12-01T06:34:54;39.63;;;20.95;;
1428;SDS011;708;51.442;7.016;2022-12-01T06:37:21;38.95;;;22.92;;
1428;SDS011;708;51.442;7.016;2022-12-01T06:39:48;48.13;;;22.48;;
1428;SDS011;708;51.442;7.016;2022-12-01T06:42:14;39.00;;;22.33;;
1428;SDS011;708;51.442;7.016;2022-12-01T06:44:41;40.13;;;24.27;;
1428;SDS011;708;51.442;7.016;2022-12-01T06:47:08;40.70;;;24.67;;
1428;SDS011;708;51.442;7.016;2022-12-01T06:49:35;41.60;;;23.60;;
1428;SDS011;708;51.442;7.016;2022-12-01T06:52:03;41.95;;;24.58;;
1428;SDS011;708;51.442;7.016;2022-12-01T06:54:30;46.53;;;23.48;;
1428;SDS011;708;51.442;7.016;2022-12-01T06:56:57;44.60;;;23.38;;
1428;SDS011;708;51.442;7.016;2022-12-01T06:59:24;51.88;;;25.80;;
1428;SDS011;708;51.442;7.016;2022-12-01T07:01:51;47.30;;;25.40;;
1428;SDS011;708;51.442;7.016;2022-12-01T07:04:18;50.15;;;26.45;;
1428;SDS011;708;51.442;7.016;2022-12-01T07:06:45;52.08;;;28.20;;
1428;SDS011;708;51.442;7.016;2022-12-01T07:09:13;47.25;;;23.85;;
1428;SDS011;708;51.442;7.016;2022-12-01T07:11:39;42.50;;;23.52;;
1428;SDS011;708;51.442;7.016;2022-12-01T07:14:09;48.95;;;29.63;;
1428;SDS011;708;51.442;7.016;2022-12-01T07:16:41;58.83;;;27.85;;
1428;SDS011;708;51.442;7.016;2022-12-01T07:19:08;50.85;;;28.13;;
1428;SDS011;708;51.442;7.016;2022-12-01T07:21:34;51.75;;;25.48;;
1428;SDS011;708;51.442;7.016;2022-12-01T07:24:01;50.65;;;25.60;;
1428;SDS011;708;51.442;7.016;2022-12-01T07:26:29;47.75;;;26.25;;
1428;SDS011;708;51.442;7.016;2022-12-01T07:28:56;47.60;;;24.40;;
1428;SDS011;708;51.442;7.016;2022-12-01T07:31:23;48.08;;;25.08;;
1428;SDS011;708;51.442;7.016;2022-12-01T07:33:50;56.60;;;28.13;;
1428;SDS011;708;51.442;7.016;2022-12-01T07:36:17;47.05;;;23.63;;
1428;SDS011;708;51.442;7.016;2022-12-01T07:38:43;47.92;;;25.73;;
1428;SDS011;708;51.442;7.016;2022-12-01T07:41:11;44.78;;;22.38;;
1428;SDS011;708;51.442;7.016;2022-12-01T07:43:40;54.25;;;26.30;;
1428;SDS011;708;51.442;7.016;2022-12-01T07:46:08;49.17;;;23.13;;
1428;SDS011;708;51.442;7.016;2022-12-01T07:48:37;48.03;;;26.80;;
1428;SDS011;708;51.442;7.016;2022-12-01T07:51:04;52.35;;;27.33;;
1428;SDS011;708;51.442;7.016;2022-12-01T07:53:32;46.85;;;25.40;;
1428;SDS011;708;51.442;7.016;2022-12-01T07:55:59;50.60;;;26.63;;
1428;SDS011;708;51.442;7.016;2022-12-01T07:58:27;46.90;;;26.42;;
1428;SDS011;708;51.442;7.016;2022-12-01T08:00:56;52.85;;;28.27;;
1428;SDS011;708;51.442;7.016;2022-12-01T08:03:23;48.53;;;26.08;;
1428;SDS011;708;51.442;7.016;2022-12-01T08:05:54;52.60;;;28.20;;
1428;SDS011;708;51.442;7.016;2022-12-01T08:08:22;47.05;;;26.50;;
1428;SDS011;708;51.442;7.016;2022-12-01T08:10:49;54.92;;;28.27;;
1428;SDS011;708;51.442;7.016;2022-12-01T08:13:16;45.90;;;23.23;;
1428;SDS011;708;51.442;7.016;2022-12-01T08:15:44;46.72;;;24.15;;
1428;SDS011;708;51.442;7.016;2022-12-01T08:18:12;47.35;;;25.63;;
1428;SDS011;708;51.442;7.016;2022-12-01T08:20:39;44.50;;;26.38;;
1428;SDS011;708;51.442;7.016;2022-12-01T08:23:06;50.20;;;26.58;;
1428;SDS011;708;51.442;7.016;2022-12-01T08:25:33;53.05;;;27.35;;
1428;SDS011;708;51.442;7.016;2022-12-01T08:28:00;46.10;;;24.02;;
1428;SDS011;708;51.442;7.016;2022-12-01T08:30:27;49.45;;;26.17;;
1428;SDS011;708;51.442;7.016;2022-12-01T08:32:54;45.00;;;25.08;;
1428;SDS011;708;51.442;7.016;2022-12-01T08:35:24;43.40;;;25.85;;
1428;SDS011;708;51.442;7.016;2022-12-01T08:37:51;46.47;;;23.60;;
1428;SDS011;708;51.442;7.016;2022-12-01T08:40:18;40.05;;;22.75;;
1428;SDS011;708;51.442;7.016;2022-12-01T08:42:45;35.88;;;21.45;;
1428;SDS011;708;51.442;7.016;2022-12-01T08:45:12;48.10;;;24.80;;
1428;SDS011;708;51.442;7.016;2022-12-01T08:47:39;50.63;;;22.50;;
1428;SDS011;708;51.442;7.016;2022-12-01T08:50:06;41.08;;;23.95;;
1428;SDS011;708;51.442;7.016;2022-12-01T08:52:34;42.70;;;25.55;;
1428;SDS011;708;51.442;7.016;2022-12-01T08:55:02;49.85;;;26.27;;
1428;SDS011;708;51.442;7.016;2022-12-01T08:57:30;42.05;;;25.27;;
1428;SDS011;708;51.442;7.016;2022-12-01T08:59:57;45.15;;;23.00;;
1428;SDS011;708;51.442;7.016;2022-12-01T09:02:24;44.05;;;23.80;;
1428;SDS011;708;51.442;7.016;2022-12-01T09:04:50;47.85;;;23.30;;
1428;SDS011;708;51.442;7.016;2022-12-01T09:07:18;44.53;;;25.08;;
1428;SDS011;708;51.442;7.016;2022-12-01T09:09:46;42.83;;;22.48;;
1428;SDS011;708;51.442;7.016;2022-12-01T09:12:14;47.88;;;27.05;;
1428;SDS011;708;51.442;7.016;2022-12-01T09:14:41;37.50;;;21.48;;
1428;SDS011;708;51.442;7.016;2022-12-01T09:17:12;48.10;;;25.08;;
1428;SDS011;708;51.442;7.016;2022-12-01T09:19:39;54.08;;;25.05;;
1428;SDS011;708;51.442;7.016;2022-12-01T09:22:06;45.13;;;24.55;;
1428;SDS011;708;51.442;7.016;2022-12-01T09:24:33;38.42;;;22.58;;
1428;SDS011;708;51.442;7.016;2022-12-01T09:27:02;46.58;;;24.42;;
1428;SDS011;708;51.442;7.016;2022-12-01T09:29:29;38.90;;;22.48;;
1428;SDS011;708;51.442;7.016;2022-12-01T09:31:57;49.88;;;23.35;;
1428;SDS011;708;51.442;7.016;2022-12-01T09:34:25;47.63;;;26.27;;
1428;SDS011;708;51.442;7.016;2022-12-01T09:36:53;40.13;;;23.85;;
1428;SDS011;708;51.442;7.016;2022-12-01T09:39:20;39.65;;;22.02;;
1428;SDS011;708;51.442;7.016;2022-12-01T09:41:48;41.50;;;22.42;;
1428;SDS011;708;51.442;7.016;2022-12-01T09:44:24;39.28;;;22.05;;
1428;SDS011;708;51.442;7.016;2022-12-01T09:46:57;42.00;;;23.00;;
1428;SDS011;708;51.442;7.016;2022-12-01T09:49:34;43.75;;;24.92;;
1428;SDS011;708;51.442;7.016;2022-12-01T09:52:08;49.05;;;22.35;;
1428;SDS011;708;51.442;7.016;2022-12-01T09:54:37;39.08;;;22.42;;
1428;SDS011;708;51.442;7.016;2022-12-01T09:57:05;38.78;;;21.65;;
1428;SDS011;708;51.442;7.016;2022-12-01T09:59:41;41.70;;;24.00;;
1428;SDS011;708;51.442;7.016;2022-12-01T10:02:13;41.05;;;20.80;;
1428;SDS011;708;51.442;7.016;2022-12-01T10:04:58;38.03;;;20.55;;
1428;SDS011;708;51.442;7.016;2022-12-01T10:07:29;40.08;;;21.63;;
1428;SDS011;708;51.442;7.016;2022-12-01T10:10:00;34.20;;;19.52;;
1428;SDS011;708;51.442;7.016;2022-12-01T10:12:29;35.63;;;21.35;;
1428;SDS011;708;51.442;7.016;2022-12-01T10:15:09;36.78;;;22.08;;
1428;SDS011;708;51.442;7.016;2022-12-01T10:17:49;38.70;;;20.55;;
1428;SDS011;708;51.442;7.016;2022-12-01T10:20:23;33.00;;;20.77;;
1428;SDS011;708;51.442;7.016;2022-12-01T10:23:00;32.45;;;19.88;;
1428;SDS011;708;51.442;7.016;2022-12-01T10:25:37;46.10;;;21.08;;
1428;SDS011;708;51.442;7.016;2022-12-01T10:28:16;33.88;;;20.92;;
1428;SDS011;708;51.442;7.016;2022-12-01T10:31:04;32.28;;;21.48;;
1428;SDS011;708;51.442;7.016;2022-12-01T10:33:42;35.03;;;19.65;;
1428;SDS011;708;51.442;7.016;2022-12-01T10:36:18;37.90;;;20.20;;
1428;SDS011;708;51.442;7.016;2022-12-01T10:38:46;30.20;;;18.83;;
1428;SDS011;708;51.442;7.016;2022-12-01T10:41:13;35.45;;;21.25;;
1428;SDS011;708;51.442;7.016;2022-12-01T10:43:44;40.42;;;21.23;;
1428;SDS011;708;51.442;7.016;2022-12-01T10:46:18;34.95;;;20.95;;
1428;SDS011;708;51.442;7.016;2022-12-01T10:48:53;45.55;;;23.50;;
1428;SDS011;708;51.442;7.016;2022-12-01T10:51:21;31.63;;;20.90;;
1428;SDS011;708;51.442;7.016;2022-12-01T10:53:49;31.33;;;20.25;;
1428;SDS011;708;51.442;7.016;2022-12-01T10:56:23;34.17;;;22.15;;
1428;SDS011;708;51.442;7.016;2022-12-01T10:58:52;35.42;;;21.55;;
1428;SDS011;708;51.442;7.016;2022-12-01T11:01:23;35.67;;;21.60;;
1428;SDS011;708;51.442;7.016;2022-12-01T11:03:52;33.10;;;22.23;;
1428;SDS011;708;51.442;7.016;2022-12-01T11:06:22;39.72;;;23.30;;
1428;SDS011;708;51.442;7.016;2022-12-01T11:08:51;39.75;;;22.25;;
1428;SDS011;708;51.442;7.016;2022-12-01T11:11:24;34.67;;;22.35;;
1428;SDS011;708;51.442;7.016;2022-12-01T11:13:55;35.83;;;23.98;;
1428;SDS011;708;51.442;7.016;2022-12-01T11:16:35;37.70;;;23.67;;
1428;SDS011;708;51.442;7.016;2022-12-01T11:19:07;33.90;;;22.90;;
1428;SDS011;708;51.442;7.016;2022-12-01T11:21:43;44.15;;;24.50;;
1428;SDS011;708;51.442;7.016;2022-12-01T11:24:15;39.50;;;25.30;;
1428;SDS011;708;51.442;7.016;2022-12-01T11:26:54;40.08;;;25.00;;
1428;SDS011;708;51.442;7.016;2022-12-01T11:29:25;37.83;;;26.67;;
1428;SDS011;708;51.442;7.016;2022-12-01T11:31:57;38.53;;;26.27;;
1428;SDS011;708;51.442;7.016;2022-12-01T11:34:27;41.35;;;26.67;;
1428;SDS011;708;51.442;7.016;2022-12-01T11:36:59;36.47;;;26.13;;
1428;SDS011;708;51.442;7.016;2022-12-01T11:39:28;45.05;;;28.13;;
1428;SDS011;708;51.442;7.016;2022-12-01T11:41:58;44.40;;;26.60;;
1428;SDS011;708;51.442;7.016;2022-12-01T11:44:26;44.53;;;28.65;;
1428;SDS011;708;51.442;7.016;2022-12-01T11:46:54;45.28;;;26.98;;
1428;SDS011;708;51.442;7.016;2022-12-01T11:49:24;42.75;;;27.13;;
1428;SDS011;708;51.442;7.016;2022-12-01T11:51:54;54.08;;;33.00;;
1428;SDS011;708;51.442;7.016;2022-12-01T11:54:22;42.60;;;27.08;;
1428;SDS011;708;51.442;7.016;2022-12-01T11:56:51;54.53;;;32.05;;
1428;SDS011;708;51.442;7.016;2022-12-01T11:59:20;50.42;;;32.25;;
1428;SDS011;708;51.442;7.016;2022-12-01T12:01:58;46.30;;;30.38;;
1428;SDS011;708;51.442;7.016;2022-12-01T12:04:50;49.90;;;29.00;;
1428;SDS011;708;51.442;7.016;2022-12-01T12:07:33;57.13;;;33.72;;
1428;SDS011;708;51.442;7.016;2022-12-01T12:10:14;51.17;;;30.50;;
1428;SDS011;708;51.442;7.016;2022-12-01T12:12:55;50.22;;;33.13;;
1428;SDS011;708;51.442;7.016;2022-12-01T12:15:36;49.30;;;31.52;;
1428;SDS011;708;51.442;7.016;2022-12-01T12:21:09;51.53;;;32.83;;
1428;SDS011;708;51.442;7.016;2022-12-01T12:23:53;54.83;;;33.22;;
1428;SDS011;708;51.442;7.016;2022-12-01T12:26:29;56.17;;;33.78;;
1428;SDS011;708;51.442;7.016;2022-12-01T12:29:06;53.53;;;32.40;;
1428;SDS011;708;51.442;7.016;2022-12-01T12:31:47;51.00;;;34.92;;
1428;SDS011;708;51.442;7.016;2022-12-01T12:34:25;53.13;;;33.17;;
1428;SDS011;708;51.442;7.016;2022-12-01T12:37:04;55.83;;;35.13;;
1428;SDS011;708;51.442;7.016;2022-12-01T12:39:44;57.92;;;33.00;;
1428;SDS011;708;51.442;7.016;2022-12-01T12:42:27;61.13;;;36.90;;
1428;SDS011;708;51.442;7.016;2022-12-01T12:45:04;58.72;;;35.05;;
1428;SDS011;708;51.442;7.016;2022-12-01T12:47:40;58.63;;;37.85;;
1428;SDS011;708;51.442;7.016;2022-12-01T12:50:21;63.65;;;37.40;;
1428;SDS011;708;51.442;7.016;2022-12-01T12:52:54;54.00;;;34.47;;
1428;SDS011;708;51.442;7.016;2022-12-01T12:55:29;49.53;;;33.25;;
1428;SDS011;708;51.442;7.016;2022-12-01T12:58:00;56.00;;;34.53;;
1428;SDS011;708;51.442;7.016;2022-12-01T13:00:30;60.72;;;37.50;;
1428;SDS011;708;51.442;7.016;2022-12-01T13:03:01;56.83;;;34.17;;
1428;SDS011;708;51.442;7.016;2022-12-01T13:05:32;66.15;;;39.00;;
1428;SDS011;708;51.442;7.016;2022-12-01T13:08:07;63.20;;;39.60;;
1428;SDS011;708;51.442;7.016;2022-12-01T13:10:39;55.85;;;37.20;;
1428;SDS011;708;51.442;7.016;2022-12-01T13:13:19;59.58;;;37.13;;
1428;SDS011;708;51.442;7.016;2022-12-01T13:15:54;59.55;;;35.60;;
1428;SDS011;708;51.442;7.016;2022-12-01T13:18:25;59.05;;;35.00;;
1428;SDS011;708;51.442;7.016;2022-12-01T13:20:57;60.53;;;36.35;;
1428;SDS011;708;51.442;7.016;2022-12-01T13:23:28;61.13;;;38.50;;
1428;SDS011;708;51.442;7.016;2022-12-01T13:25:56;56.22;;;35.63;;
1428;SDS011;708;51.442;7.016;2022-12-01T13:28:26;58.60;;;36.42;;
1428;SDS011;708;51.442;7.016;2022-12-01T13:31:01;60.35;;;37.85;;
1428;SDS011;708;51.442;7.016;2022-12-01T13:33:30;62.60;;;37.65;;
1428;SDS011;708;51.442;7.016;2022-12-01T13:35:58;60.08;;;37.53;;
1428;SDS011;708;51.442;7.016;2022-12-01T13:38:28;70.50;;;41.55;;
1428;SDS011;708;51.442;7.016;2022-12-01T13:41:13;59.00;;;37.13;;
1428;SDS011;708;51.442;7.016;2022-12-01T13:43:52;59.45;;;36.55;;
1428;SDS011;708;51.442;7.016;2022-12-01T13:46:22;59.25;;;35.10;;
1428;SDS011;708;51.442;7.016;2022-12-01T13:48:54;64.57;;;37.80;;
1428;SDS011;708;51.442;7.016;2022-12-01T13:51:22;63.33;;;37.60;;
1428;SDS011;708;51.442;7.016;2022-12-01T13:54:00;61.58;;;39.63;;
1428;SDS011;708;51.442;7.016;2022-12-01T13:56:36;62.92;;;39.90;;
1428;SDS011;708;51.442;7.016;2022-12-01T14:02:14;60.05;;;36.38;;
1428;SDS011;708;51.442;7.016;2022-12-01T14:04:43;64.28;;;37.10;;
1428;SDS011;708;51.442;7.016;2022-12-01T14:10:08;58.55;;;36.53;;
1428;SDS011;708;51.442;7.016;2022-12-01T14:13:00;61.90;;;37.78;;
1428;SDS011;708;51.442;7.016;2022-12-01T14:15:31;56.95;;;36.30;;
1428;SDS011;708;51.442;7.016;2022-12-01T14:18:01;57.10;;;37.15;;
1428;SDS011;708;51.442;7.016;2022-12-01T14:20:31;52.55;;;33.65;;
1428;SDS011;708;51.442;7.016;2022-12-01T14:23:02;59.47;;;35.50;;
1428;SDS011;708;51.442;7.016;2022-12-01T14:25:39;61.72;;;38.15;;
1428;SDS011;708;51.442;7.016;2022-12-01T14:28:11;65.43;;;39.17;;
1428;SDS011;708;51.442;7.016;2022-12-01T14:33:39;70.93;;;42.65;;
1428;SDS011;708;51.442;7.016;2022-12-01T14:36:12;72.10;;;44.72;;
1428;SDS011;708;51.442;7.016;2022-12-01T14:38:47;68.05;;;38.20;;
1428;SDS011;708;51.442;7.016;2022-12-01T14:41:20;63.47;;;39.58;;
1428;SDS011;708;51.442;7.016;2022-12-01T14:43:50;66.68;;;40.60;;
1428;SDS011;708;51.442;7.016;2022-12-01T14:46:30;66.70;;;40.05;;
1428;SDS011;708;51.442;7.016;2022-12-01T14:49:15;64.63;;;38.20;;
1428;SDS011;708;51.442;7.016;2022-12-01T14:51:45;64.72;;;39.72;;
1428;SDS011;708;51.442;7.016;2022-12-01T14:54:19;65.80;;;41.35;;
1428;SDS011;708;51.442;7.016;2022-12-01T14:56:53;65.80;;;38.15;;
1428;SDS011;708;51.442;7.016;2022-12-01T14:59:22;71.65;;;40.13;;
1428;SDS011;708;51.442;7.016;2022-12-01T15:01:52;62.15;;;37.20;;
1428;SDS011;708;51.442;7.016;2022-12-01T15:04:21;59.58;;;38.17;;
1428;SDS011;708;51.442;7.016;2022-12-01T15:06:52;69.00;;;40.20;;
1428;SDS011;708;51.442;7.016;2022-12-01T15:09:21;62.95;;;40.50;;
1428;SDS011;708;51.442;7.016;2022-12-01T15:11:49;58.45;;;35.67;;
1428;SDS011;708;51.442;7.016;2022-12-01T15:14:20;56.85;;;36.00;;
1428;SDS011;708;51.442;7.016;2022-12-01T15:16:49;62.22;;;38.30;;
1428;SDS011;708;51.442;7.016;2022-12-01T15:19:23;56.45;;;37.00;;
1428;SDS011;708;51.442;7.016;2022-12-01T15:22:01;58.15;;;37.10;;
1428;SDS011;708;51.442;7.016;2022-12-01T15:24:30;63.58;;;36.05;;
1428;SDS011;708;51.442;7.016;2022-12-01T15:26:58;58.30;;;36.72;;
1428;SDS011;708;51.442;7.016;2022-12-01T15:29:26;62.35;;;39.53;;
1428;SDS011;708;51.442;7.016;2022-12-01T15:31:55;55.72;;;34.85;;
1428;SDS011;708;51.442;7.016;2022-12-01T15:34:25;62.38;;;38.15;;